Time;durP1;ratioP1;P1;durP2;ratioP2;P2;SDS_P1;SDS_P2;PMS_P1;PMS_P2;Temp;Humidity;BMP_temperature;BMP_pressure;BME280_temperature;BME280_humidity;BME280_pressure;Samples;Min_cycle;Max_cycle;Signal;HPM_P1;HPM_P2
2022/07/07 00:00:00;;;;;;;43.60;20.15;;;16.10;99.90;;;;;;6253367;22;20086;-85
2022/07/07 00:02:26;;;;;;;26.92;19.17;;;16.10;99.90;;;;;;6253157;22;20090;-84
2022/07/07 00:04:51;;;;;;;30.08;18.83;;;16.10;99.90;;;;;;6254102;22;20106;-84
2022/07/07 00:07:17;;;;;;;44.40;20.60;;;16.10;99.90;;;;;;6254131;22;20082;-84
2022/07/07 00:09:43;;;;;;;47.85;21.20;;;16.10;99.90;;;;;;6279545;22;20007;-84
2022/07/07 00:12:09;;;;;;;34.42;20.75;;;16.10;99.90;;;;;;6254527;22;20007;-85
2022/07/07 00:14:35;;;;;;;25.30;18.85;;;16.10;99.90;;;;;;6278654;22;20018;-84
2022/07/07 00:17:00;;;;;;;23.33;17.10;;;16.10;99.90;;;;;;6254110;22;20007;-86
2022/07/07 00:19:26;;;;;;;38.78;17.70;;;16.10;99.90;;;;;;6278572;22;20434;-86
2022/07/07 00:21:52;;;;;;;18.63;15.10;;;16.10;99.90;;;;;;6253903;22;20363;-84
2022/07/07 00:24:18;;;;;;;23.33;15.02;;;16.10;99.90;;;;;;6254080;22;20046;-85
2022/07/07 00:26:43;;;;;;;23.67;15.65;;;16.10;99.90;;;;;;6254020;22;20043;-84
2022/07/07 00:29:09;;;;;;;22.17;14.85;;;16.10;99.90;;;;;;6253524;22;20456;-84
2022/07/07 00:31:35;;;;;;;25.08;16.73;;;16.10;99.90;;;;;;6280213;22;20019;-84
2022/07/07 00:34:01;;;;;;;33.35;17.95;;;16.20;99.90;;;;;;6279151;22;20011;-84
2022/07/07 00:36:26;;;;;;;34.70;19.05;;;16.10;99.90;;;;;;6253833;22;20008;-84
2022/07/07 00:38:52;;;;;;;28.90;17.73;;;16.10;99.90;;;;;;6277378;22;20356;-84
2022/07/07 00:41:18;;;;;;;29.38;19.55;;;16.10;99.90;;;;;;6278735;22;20007;-84
2022/07/07 00:43:44;;;;;;;35.40;19.05;;;16.20;99.90;;;;;;6253717;22;20011;-83
2022/07/07 00:46:11;;;;;;;41.45;19.95;;;16.10;99.90;;;;;;6253979;22;20018;-84
2022/07/07 00:48:39;;;;;;;23.45;17.85;;;16.20;99.90;;;;;;6278940;22;20011;-84
2022/07/07 00:51:06;;;;;;;59.17;25.05;;;16.20;99.90;;;;;;6253518;22;20347;-85
2022/07/07 00:53:32;;;;;;;34.45;20.55;;;16.20;99.90;;;;;;6279881;22;20011;-84
2022/07/07 00:55:58;;;;;;;32.90;22.27;;;16.10;99.90;;;;;;6253948;22;20057;-84
2022/07/07 00:58:24;;;;;;;55.10;25.48;;;16.10;99.90;;;;;;6252930;22;20483;-84
2022/07/07 01:00:49;;;;;;;94.88;26.40;;;16.20;99.90;;;;;;6253570;22;20018;-84
2022/07/07 01:03:15;;;;;;;48.83;23.98;;;16.20;99.90;;;;;;6253068;22;20034;-85
2022/07/07 01:05:45;;;;;;;30.75;21.50;;;16.20;99.90;;;;;;6253710;22;20003;-84
2022/07/07 01:08:14;;;;;;;37.15;21.75;;;16.20;99.90;;;;;;6253410;22;20018;-84
2022/07/07 01:10:43;;;;;;;33.00;21.95;;;16.20;99.90;;;;;;6253698;22;20415;-84
2022/07/07 01:13:09;;;;;;;40.60;22.80;;;16.20;99.90;;;;;;6253210;22;20015;-84
2022/07/07 01:15:35;;;;;;;34.28;21.00;;;16.20;99.90;;;;;;6278386;22;20011;-84
2022/07/07 01:18:01;;;;;;;24.95;18.85;;;16.20;99.90;;;;;;6278039;22;20030;-84
2022/07/07 01:20:27;;;;;;;29.10;17.08;;;16.20;99.90;;;;;;6253710;22;20011;-84
2022/07/07 01:22:53;;;;;;;22.27;13.48;;;16.20;99.90;;;;;;6253695;22;20133;-85
2022/07/07 01:25:19;;;;;;;20.17;10.52;;;16.10;99.90;;;;;;6253410;22;20018;-84
2022/07/07 01:27:45;;;;;;;10.40;7.65;;;16.20;99.90;;;;;;6252828;22;20457;-85
2022/07/07 01:30:11;;;;;;;12.50;5.88;;;16.10;99.90;;;;;;6253477;22;20011;-85
2022/07/07 01:32:37;;;;;;;8.40;5.63;;;16.10;99.90;;;;;;6253138;22;20015;-85
2022/07/07 01:35:03;;;;;;;15.18;5.72;;;16.20;99.90;;;;;;6253588;22;20095;-85
2022/07/07 01:37:29;;;;;;;10.32;5.70;;;16.10;99.90;;;;;;6253870;22;20011;-87
2022/07/07 01:39:55;;;;;;;7.97;5.18;;;16.10;99.90;;;;;;6252926;22;20012;-85
2022/07/07 01:42:21;;;;;;;12.27;5.65;;;16.00;99.90;;;;;;6278071;22;20348;-85
2022/07/07 01:44:50;;;;;;;13.20;5.68;;;16.00;99.90;;;;;;6279382;22;20337;-85
2022/07/07 01:47:17;;;;;;;8.88;5.72;;;16.00;99.90;;;;;;6253191;22;20011;-85
2022/07/07 01:49:43;;;;;;;11.20;6.32;;;16.00;99.90;;;;;;6252645;22;20011;-87
2022/07/07 01:52:09;;;;;;;10.73;6.38;;;15.90;99.90;;;;;;6253521;22;20057;-85
2022/07/07 01:54:36;;;;;;;14.52;7.70;;;15.90;99.90;;;;;;6252372;22;20064;-85
2022/07/07 01:57:03;;;;;;;13.65;7.60;;;15.90;99.90;;;;;;6252817;22;20508;-86
2022/07/07 01:59:29;;;;;;;11.98;6.70;;;15.90;99.90;;;;;;6253002;22;20011;-87
2022/07/07 02:01:54;;;;;;;12.40;7.38;;;15.80;99.90;;;;;;6253337;22;20325;-85
2022/07/07 02:04:20;;;;;;;16.33;7.90;;;15.80;99.90;;;;;;6253477;22;20007;-86
2022/07/07 02:06:46;;;;;;;11.52;7.13;;;15.80;99.90;;;;;;6252916;22;20007;-85
2022/07/07 02:09:11;;;;;;;11.20;7.57;;;15.80;99.90;;;;;;6252668;22;20018;-86
2022/07/07 02:11:37;;;;;;;10.02;7.35;;;15.80;99.90;;;;;;6252844;22;20019;-85
2022/07/07 02:14:04;;;;;;;17.92;8.77;;;15.90;99.90;;;;;;6253250;22;20016;-84
2022/07/07 02:16:30;;;;;;;13.98;8.43;;;15.80;99.90;;;;;;6253145;22;20011;-86
2022/07/07 02:18:59;;;;;;;14.07;8.93;;;15.90;99.90;;;;;;6278583;22;20022;-86
2022/07/07 02:21:25;;;;;;;18.13;9.68;;;15.80;99.90;;;;;;6278393;22;20011;-84
2022/07/07 02:23:52;;;;;;;16.50;8.77;;;15.70;99.90;;;;;;6252934;22;20404;-85
2022/07/07 02:26:18;;;;;;;14.55;9.07;;;15.70;99.90;;;;;;6252298;22;20359;-86
2022/07/07 02:28:44;;;;;;;24.60;10.15;;;15.70;99.90;;;;;;6252844;22;20075;-87
2022/07/07 02:31:10;;;;;;;15.95;8.82;;;15.80;99.90;;;;;;6253121;22;20093;-86
2022/07/07 02:33:37;;;;;;;12.13;8.45;;;15.80;99.90;;;;;;6253432;22;20054;-85
2022/07/07 02:36:04;;;;;;;20.20;10.13;;;15.70;99.90;;;;;;6252248;22;20015;-86
2022/07/07 02:38:31;;;;;;;15.77;9.32;;;15.70;99.90;;;;;;6252141;22;20011;-86
2022/07/07 02:40:57;;;;;;;15.13;8.38;;;15.70;99.90;;;;;;6278690;22;20061;-85
2022/07/07 02:43:23;;;;;;;18.90;9.10;;;15.80;99.90;;;;;;6253004;22;20007;-85
2022/07/07 02:45:49;;;;;;;9.13;8.20;;;15.70;99.90;;;;;;6252021;22;20012;-85
2022/07/07 02:48:17;;;;;;;13.00;8.20;;;15.70;99.90;;;;;;6252583;22;20011;-85
2022/07/07 02:50:43;;;;;;;14.13;8.32;;;15.80;99.90;;;;;;6252926;22;20022;-85
2022/07/07 02:53:10;;;;;;;14.45;8.30;;;15.80;99.90;;;;;;6278166;22;20007;-85
2022/07/07 02:55:36;;;;;;;12.85;8.27;;;15.80;99.90;;;;;;6252808;22;20466;-85
2022/07/07 02:58:03;;;;;;;12.23;8.00;;;15.80;99.90;;;;;;6252513;22;20011;-85
2022/07/07 03:00:33;;;;;;;15.48;9.50;;;15.80;99.90;;;;;;6252037;22;20089;-85
2022/07/07 03:03:00;;;;;;;18.63;9.65;;;15.80;99.90;;;;;;6254042;22;20012;-85
2022/07/07 03:05:26;;;;;;;17.45;9.73;;;15.80;99.90;;;;;;6255391;22;20015;-85
2022/07/07 03:07:51;;;;;;;14.70;8.93;;;15.80;99.90;;;;;;6254456;22;20007;-85
2022/07/07 03:10:17;;;;;;;25.73;10.63;;;15.80;99.90;;;;;;6255102;22;20015;-85
2022/07/07 03:12:43;;;;;;;16.63;9.52;;;15.80;99.90;;;;;;6254050;22;20414;-86
2022/07/07 03:15:09;;;;;;;39.40;12.20;;;15.90;99.90;;;;;;6254864;22;20072;-86
2022/07/07 03:17:36;;;;;;;14.40;8.40;;;15.80;99.90;;;;;;6254695;22;20038;-86
2022/07/07 03:20:05;;;;;;;21.50;9.00;;;15.80;99.90;;;;;;6279723;22;20011;-87
2022/07/07 03:22:30;;;;;;;13.20;7.57;;;15.70;99.90;;;;;;6254476;22;20094;-86
2022/07/07 03:24:56;;;;;;;14.45;7.15;;;15.80;99.90;;;;;;6254945;22;20039;-86
2022/07/07 03:27:21;;;;;;;14.57;7.13;;;15.80;99.90;;;;;;6254348;22;20335;-87
2022/07/07 03:29:47;;;;;;;13.60;6.63;;;15.80;99.90;;;;;;6254653;22;20011;-86
2022/07/07 03:32:12;;;;;;;18.45;7.47;;;15.80;99.90;;;;;;6254937;22;20007;-85
2022/07/07 03:34:38;;;;;;;22.83;6.97;;;15.80;99.90;;;;;;6254357;22;20007;-85
2022/07/07 03:37:04;;;;;;;14.40;5.40;;;15.70;99.90;;;;;;6254177;22;20069;-84
2022/07/07 03:39:29;;;;;;;13.02;4.43;;;15.70;99.90;;;;;;6253953;22;20015;-84
2022/07/07 03:41:55;;;;;;;15.80;4.65;;;15.70;99.90;;;;;;6254318;22;20003;-85
2022/07/07 03:44:21;;;;;;;13.13;3.92;;;15.70;99.90;;;;;;6254783;22;20050;-84
2022/07/07 03:46:47;;;;;;;12.88;3.75;;;15.60;99.90;;;;;;6254251;22;20007;-84
2022/07/07 03:49:12;;;;;;;14.23;4.05;;;15.70;99.90;;;;;;6254346;22;20015;-83
2022/07/07 03:51:38;;;;;;;16.95;5.00;;;15.70;99.90;;;;;;6254389;22;20023;-84
2022/07/07 03:54:04;;;;;;;17.60;4.38;;;15.50;99.90;;;;;;6254116;22;20018;-84
2022/07/07 03:56:29;;;;;;;9.70;3.60;;;15.60;99.90;;;;;;6254505;22;20014;-84
2022/07/07 03:58:55;;;;;;;12.73;3.45;;;15.60;99.90;;;;;;6254775;22;20019;-85
2022/07/07 04:01:21;;;;;;;12.20;3.72;;;15.60;99.90;;;;;;6279558;22;20606;-84
2022/07/07 04:03:46;;;;;;;10.45;3.63;;;15.50;99.90;;;;;;6279519;22;20007;-85
2022/07/07 04:06:12;;;;;;;15.13;4.70;;;15.50;99.90;;;;;;6254090;22;20066;-83
2022/07/07 04:08:38;;;;;;;14.38;3.80;;;15.50;99.90;;;;;;6254156;22;20011;-84
2022/07/07 04:11:03;;;;;;;13.90;3.40;;;15.50;99.90;;;;;;6254242;22;20075;-84
2022/07/07 04:13:29;;;;;;;11.60;4.05;;;15.50;99.90;;;;;;6253378;22;20030;-84
2022/07/07 04:15:58;;;;;;;12.95;3.63;;;15.60;99.90;;;;;;6279423;22;20060;-84
2022/07/07 04:18:23;;;;;;;12.75;3.33;;;15.50;99.90;;;;;;6278166;22;20012;-84
2022/07/07 04:20:50;;;;;;;15.05;2.70;;;15.50;99.90;;;;;;6254410;22;20014;-84
2022/07/07 04:23:16;;;;;;;12.80;2.50;;;15.50;99.90;;;;;;6254134;22;20057;-85
2022/07/07 04:25:42;;;;;;;16.98;2.47;;;15.50;99.90;;;;;;6254477;22;20012;-84
2022/07/07 04:28:07;;;;;;;12.48;2.33;;;15.50;99.90;;;;;;6254075;22;20007;-85
2022/07/07 04:30:33;;;;;;;11.10;1.75;;;15.60;99.90;;;;;;6278256;22;20102;-85
2022/07/07 04:32:58;;;;;;;19.85;2.03;;;15.50;99.90;;;;;;6253643;22;20029;-86
2022/07/07 04:35:24;;;;;;;14.90;1.83;;;15.40;99.90;;;;;;6279797;22;20046;-85
2022/07/07 04:37:50;;;;;;;14.32;1.95;;;15.40;99.90;;;;;;6278654;22;20015;-84
2022/07/07 04:40:16;;;;;;;7.88;1.70;;;15.40;99.90;;;;;;6253514;22;20451;-83
2022/07/07 04:42:42;;;;;;;10.40;1.70;;;15.40;99.90;;;;;;6254130;22;20046;-85
2022/07/07 04:45:08;;;;;;;10.00;1.38;;;15.30;99.90;;;;;;6253676;22;20041;-84
2022/07/07 04:47:41;;;;;;;14.30;1.50;;;15.40;99.90;;;;;;6253244;22;20016;-84
2022/07/07 04:50:11;;;;;;;9.13;1.58;;;15.40;99.90;;;;;;6254137;22;20011;-84
2022/07/07 04:52:38;;;;;;;10.52;1.67;;;15.30;99.90;;;;;;6254108;22;20003;-84
2022/07/07 04:55:04;;;;;;;8.52;1.40;;;15.30;99.90;;;;;;6253564;22;20007;-84
2022/07/07 04:57:30;;;;;;;10.18;1.90;;;15.30;99.90;;;;;;6252713;22;20053;-83
2022/07/07 04:59:56;;;;;;;6.55;1.75;;;15.30;99.90;;;;;;6252660;22;20039;-83
2022/07/07 05:02:22;;;;;;;11.45;1.60;;;15.30;99.90;;;;;;6253323;22;20003;-83
2022/07/07 05:04:49;;;;;;;11.88;1.70;;;15.20;99.90;;;;;;6253982;22;20068;-83
2022/07/07 05:07:15;;;;;;;9.43;1.58;;;15.20;99.90;;;;;;6253810;22;20019;-83
2022/07/07 05:09:41;;;;;;;8.93;1.60;;;15.30;99.90;;;;;;6252579;22;20339;-83
2022/07/07 05:12:06;;;;;;;9.73;1.80;;;15.30;99.90;;;;;;6253327;22;20011;-86
2022/07/07 05:14:32;;;;;;;9.98;1.63;;;15.30;99.90;;;;;;6253596;22;20060;-85
2022/07/07 05:16:59;;;;;;;7.47;1.70;;;15.30;99.90;;;;;;6253818;22;20016;-84
2022/07/07 05:19:25;;;;;;;10.27;1.63;;;15.30;99.90;;;;;;6251288;22;20007;-83
2022/07/07 05:21:51;;;;;;;10.50;1.45;;;15.40;99.90;;;;;;6253510;22;20007;-84
2022/07/07 05:24:17;;;;;;;11.40;1.90;;;15.40;99.90;;;;;;6253235;22;20018;-84
2022/07/07 05:26:43;;;;;;;8.57;1.52;;;15.40;99.90;;;;;;6251974;22;20062;-84
2022/07/07 05:29:08;;;;;;;11.10;1.80;;;15.50;99.90;;;;;;6251908;22;20090;-83
2022/07/07 05:31:34;;;;;;;6.30;1.73;;;15.50;99.90;;;;;;6251913;22;20019;-84
2022/07/07 05:34:00;;;;;;;16.65;1.98;;;15.60;99.90;;;;;;6253105;22;20464;-84
2022/07/07 05:36:25;;;;;;;15.23;2.45;;;15.70;99.90;;;;;;6252384;22;20007;-83
2022/07/07 05:39:16;;;;;;;12.30;2.30;;;15.90;99.90;;;;;;6252982;22;20012;-84
2022/07/07 05:41:44;;;;;;;8.18;2.05;;;16.10;99.90;;;;;;6278441;22;20015;-83
2022/07/07 05:44:09;;;;;;;7.32;1.65;;;16.30;99.90;;;;;;6252727;22;20414;-81
2022/07/07 05:46:35;;;;;;;9.90;1.98;;;16.60;99.90;;;;;;6253074;22;20011;-85
2022/07/07 05:49:02;;;;;;;8.68;1.63;;;16.80;99.90;;;;;;6277872;22;20042;-85
2022/07/07 05:51:27;;;;;;;9.43;1.55;;;16.80;99.90;;;;;;6278281;22;20038;-85
2022/07/07 05:53:53;;;;;;;12.95;1.67;;;16.70;99.90;;;;;;6253478;22;20015;-89
2022/07/07 05:56:18;;;;;;;8.02;2.00;;;16.80;99.90;;;;;;6253774;22;20046;-87
2022/07/07 05:58:44;;;;;;;12.95;1.90;;;16.80;99.90;;;;;;6278631;22;20019;-87
2022/07/07 06:01:11;;;;;;;7.65;1.80;;;16.70;99.90;;;;;;6252642;22;20019;-86
2022/07/07 06:03:36;;;;;;;9.73;1.60;;;16.60;99.90;;;;;;6253218;22;20018;-86
2022/07/07 06:06:03;;;;;;;11.13;1.95;;;16.50;99.90;;;;;;6253588;22;20007;-87
2022/07/07 06:08:28;;;;;;;8.27;2.08;;;16.40;99.90;;;;;;6252972;22;20064;-87
2022/07/07 06:10:55;;;;;;;10.70;2.00;;;16.40;99.90;;;;;;6252840;22;20015;-86
2022/07/07 06:13:20;;;;;;;9.25;1.63;;;16.40;99.90;;;;;;6251877;22;20017;-85
2022/07/07 06:15:46;;;;;;;8.45;1.50;;;16.40;99.90;;;;;;6253074;22;20085;-87
2022/07/07 06:18:12;;;;;;;6.47;1.40;;;16.40;99.90;;;;;;6252772;22;20011;-88
2022/07/07 06:20:38;;;;;;;9.02;1.42;;;16.40;99.90;;;;;;6253691;22;20351;-90
2022/07/07 06:23:13;;;;;;;8.65;1.77;;;16.30;99.90;;;;;;6278355;22;20077;-85
2022/07/07 06:25:39;;;;;;;13.75;1.70;;;16.30;99.90;;;;;;6253346;22;20007;-84
2022/07/07 06:28:05;;;;;;;11.38;2.05;;;16.20;99.90;;;;;;6252098;22;20011;-84
2022/07/07 06:30:30;;;;;;;10.93;1.98;;;16.10;99.90;;;;;;6277098;22;20419;-84
2022/07/07 06:32:56;;;;;;;12.13;1.85;;;16.00;99.90;;;;;;6252218;22;20011;-85
2022/07/07 06:35:26;;;;;;;12.48;2.00;;;16.00;99.90;;;;;;6252717;22;20011;-88
2022/07/07 06:37:53;;;;;;;14.23;2.30;;;16.00;99.90;;;;;;6252388;22;20011;-87
2022/07/07 06:40:19;;;;;;;10.38;1.63;;;16.00;99.90;;;;;;6278681;22;20015;-88
2022/07/07 06:42:45;;;;;;;11.02;1.70;;;16.10;99.90;;;;;;6253175;22;20015;-87
2022/07/07 06:45:11;;;;;;;5.53;1.60;;;16.20;99.90;;;;;;6253001;22;20004;-87
2022/07/07 06:47:36;;;;;;;7.68;1.70;;;16.40;99.90;;;;;;6252729;22;20344;-87
2022/07/07 06:50:02;;;;;;;6.22;1.60;;;16.50;99.90;;;;;;6253510;22;20008;-87
2022/07/07 06:52:28;;;;;;;10.07;1.67;;;16.60;99.90;;;;;;6252993;22;20007;-86
2022/07/07 06:54:54;;;;;;;7.57;1.55;;;16.60;99.90;;;;;;6252985;22;20012;-87
2022/07/07 06:57:19;;;;;;;6.25;1.42;;;16.80;99.90;;;;;;6253106;22;20446;-87
2022/07/07 06:59:45;;;;;;;7.72;1.38;;;16.90;99.90;;;;;;6252966;22;20011;-87
2022/07/07 07:02:10;;;;;;;8.35;1.17;;;17.00;99.90;;;;;;6253142;22;20467;-87
2022/07/07 07:04:36;;;;;;;6.38;1.40;;;17.10;99.90;;;;;;6253065;22;20011;-86
2022/07/07 07:07:02;;;;;;;5.97;1.10;;;17.10;99.90;;;;;;6252941;22;20014;-86
2022/07/07 07:09:27;;;;;;;4.15;0.80;;;17.10;99.90;;;;;;6252768;22;20011;-87
2022/07/07 07:11:54;;;;;;;4.88;1.00;;;17.00;99.90;;;;;;6253082;22;20016;-87
2022/07/07 07:14:20;;;;;;;6.70;1.35;;;17.00;99.90;;;;;;6278694;22;20013;-85
2022/07/07 07:16:46;;;;;;;5.80;1.10;;;17.00;99.90;;;;;;6252750;22;20007;-85
2022/07/07 07:19:11;;;;;;;4.85;0.90;;;17.00;99.90;;;;;;6252660;22;20081;-85
2022/07/07 07:21:37;;;;;;;6.28;1.20;;;17.10;99.90;;;;;;6253156;22;20010;-87
2022/07/07 07:24:03;;;;;;;4.22;0.90;;;17.10;99.90;;;;;;6278520;22;20390;-87
2022/07/07 07:26:29;;;;;;;4.35;1.00;;;17.30;99.90;;;;;;6252884;22;20158;-86
2022/07/07 07:28:55;;;;;;;5.93;0.90;;;17.40;99.90;;;;;;6278229;22;20007;-87
2022/07/07 07:31:20;;;;;;;4.40;1.10;;;17.30;99.90;;;;;;6253000;22;20093;-88
2022/07/07 07:33:47;;;;;;;5.63;0.80;;;17.00;99.90;;;;;;6278804;22;20019;-86
2022/07/07 07:36:13;;;;;;;5.07;1.00;;;17.00;99.90;;;;;;6252781;22;20386;-87
2022/07/07 07:49:05;;;;;;;3.53;0.80;;;17.40;99.90;;;;;;6301474;22;20027;-91
2022/07/07 07:51:33;;;;;;;4.65;0.70;;;17.50;99.90;;;;;;6280693;22;20393;-88
2022/07/07 07:53:59;;;;;;;3.90;0.90;;;17.50;99.90;;;;;;6254830;22;20401;-90
2022/07/07 07:56:24;;;;;;;2.65;0.70;;;17.40;99.90;;;;;;6280297;22;20007;-89
2022/07/07 07:58:50;;;;;;;4.10;0.95;;;17.60;99.90;;;;;;6254342;22;20008;-90
2022/07/07 08:01:15;;;;;;;4.88;0.80;;;18.30;99.90;;;;;;6281238;22;20012;-90
2022/07/07 08:03:41;;;;;;;7.60;1.25;;;18.90;99.90;;;;;;6255678;22;20197;-90
2022/07/07 08:06:07;;;;;;;5.22;1.63;;;19.30;99.90;;;;;;6254527;22;20014;-90
2022/07/07 08:08:33;;;;;;;5.38;1.02;;;19.60;99.90;;;;;;6254177;22;20014;-91
2022/07/07 08:10:58;;;;;;;5.18;1.00;;;19.90;99.90;;;;;;6255164;22;20386;-90
2022/07/07 08:13:24;;;;;;;5.28;1.02;;;19.90;99.90;;;;;;6254761;22;20011;-89
2022/07/07 08:15:51;;;;;;;7.25;1.63;;;20.00;99.90;;;;;;6256119;22;20120;-91
2022/07/07 08:18:16;;;;;;;9.90;1.30;;;20.20;99.90;;;;;;6255400;22;20056;-90
2022/07/07 08:20:42;;;;;;;7.53;1.25;;;20.60;99.90;;;;;;6281880;22;20430;-91
2022/07/07 08:26:26;;;;;;;5.63;1.20;;;21.00;99.90;;;;;;6309457;22;20401;-89
2022/07/07 08:28:52;;;;;;;3.67;1.00;;;20.70;99.90;;;;;;6255273;22;20057;-89
2022/07/07 08:31:17;;;;;;;4.97;0.90;;;20.30;99.90;;;;;;6256519;22;20401;-90
2022/07/07 08:33:43;;;;;;;5.40;0.90;;;19.90;99.90;;;;;;6256565;22;20043;-91
2022/07/07 08:36:08;;;;;;;3.95;1.00;;;19.60;99.90;;;;;;6280947;22;20443;-88
2022/07/07 08:38:34;;;;;;;5.32;1.23;;;19.30;99.90;;;;;;6279447;22;20015;-89
2022/07/07 08:41:00;;;;;;;5.93;1.23;;;18.90;99.90;;;;;;6254560;22;20052;-89
2022/07/07 08:43:26;;;;;;;10.05;1.45;;;18.40;99.90;;;;;;6254420;22;20455;-91
2022/07/07 08:45:53;;;;;;;5.07;0.90;;;18.20;99.90;;;;;;6254352;22;20061;-90
2022/07/07 08:48:20;;;;;;;3.97;1.08;;;18.10;99.90;;;;;;6254182;22;20445;-92
2022/07/07 08:50:46;;;;;;;4.00;0.90;;;18.10;99.90;;;;;;6254244;22;20018;-91
2022/07/07 08:53:13;;;;;;;3.88;0.80;;;18.30;99.90;;;;;;6254367;22;20094;-92
2022/07/07 08:55:42;;;;;;;3.92;1.15;;;18.50;99.90;;;;;;6254680;22;20017;-90
2022/07/07 08:58:09;;;;;;;2.78;0.90;;;19.10;99.90;;;;;;6253768;22;20073;-91
2022/07/07 09:00:35;;;;;;;2.60;0.80;;;20.00;99.90;;;;;;6254317;22;20434;-92
2022/07/07 09:03:05;;;;;;;3.20;0.60;;;20.40;99.90;;;;;;6254666;22;20137;-92
2022/07/07 09:05:37;;;;;;;5.20;1.20;;;20.40;99.90;;;;;;6254598;22;20042;-91
2022/07/07 09:08:20;;;;;;;3.22;0.82;;;20.30;99.90;;;;;;6253771;22;20066;-91
2022/07/07 09:10:46;;;;;;;3.73;0.77;;;20.40;99.90;;;;;;6254077;22;20102;-91
2022/07/07 09:13:28;;;;;;;3.55;0.73;;;20.80;99.90;;;;;;6254271;22;20502;-90
2022/07/07 09:15:57;;;;;;;3.45;0.90;;;21.10;99.90;;;;;;6254197;22;20011;-92
2022/07/07 09:18:35;;;;;;;4.38;1.00;;;20.80;99.90;;;;;;6253950;22;20019;-92
2022/07/07 09:21:03;;;;;;;4.63;1.35;;;20.50;99.90;;;;;;6254054;22;20007;-90
2022/07/07 09:23:30;;;;;;;5.40;1.20;;;20.50;99.90;;;;;;6253697;22;20007;-90
2022/07/07 09:25:56;;;;;;;3.28;0.93;;;20.70;99.90;;;;;;6253917;22;20052;-90
2022/07/07 09:28:23;;;;;;;4.70;1.23;;;20.70;99.90;;;;;;6253628;22;20011;-91
2022/07/07 09:30:49;;;;;;;4.78;0.90;;;20.40;99.90;;;;;;6253891;22;20019;-90
2022/07/07 09:33:19;;;;;;;6.43;1.30;;;20.10;99.90;;;;;;6253759;22;20019;-89
2022/07/07 09:38:33;;;;;;;3.97;0.95;;;19.60;99.90;;;;;;6278890;22;20026;-90
2022/07/07 09:41:08;;;;;;;5.57;1.00;;;19.20;99.90;;;;;;6253865;22;20030;-91
2022/07/07 09:43:36;;;;;;;3.88;1.08;;;18.90;99.90;;;;;;6253870;22;20004;-91
2022/07/07 09:46:18;;;;;;;5.82;1.15;;;18.70;99.90;;;;;;6279261;22;20061;-90
2022/07/07 09:48:52;;;;;;;5.30;1.30;;;18.70;99.90;;;;;;6253247;22;20011;-91
2022/07/07 09:51:23;;;;;;;7.70;1.42;;;18.90;99.90;;;;;;6254163;22;20011;-90
2022/07/07 09:53:52;;;;;;;5.10;1.20;;;19.10;99.90;;;;;;6253734;22;20018;-90
2022/07/07 09:56:19;;;;;;;6.85;1.15;;;19.30;99.90;;;;;;6253614;22;20015;-90
2022/07/07 09:58:45;;;;;;;4.75;1.10;;;19.40;99.90;;;;;;6253368;22;20104;-89
2022/07/07 10:04:54;;;;;;;5.07;1.58;;;19.30;99.90;;;;;;6306474;22;20011;-90
2022/07/07 10:07:26;;;;;;;4.97;1.10;;;19.00;99.90;;;;;;6278830;22;20467;-91
2022/07/07 10:09:54;;;;;;;5.07;1.20;;;18.90;99.90;;;;;;6253171;22;20057;-91
2022/07/07 10:12:22;;;;;;;6.65;1.33;;;19.00;99.90;;;;;;6253046;22;20015;-90
2022/07/07 10:14:50;;;;;;;4.15;1.27;;;19.10;99.90;;;;;;6253509;22;20015;-90
2022/07/07 10:17:16;;;;;;;5.22;1.73;;;19.20;99.90;;;;;;6278852;22;20104;-90
2022/07/07 10:19:44;;;;;;;5.22;1.52;;;19.40;99.90;;;;;;6253105;22;20057;-88
2022/07/07 10:22:11;;;;;;;5.93;1.60;;;19.60;99.90;;;;;;6278878;22;20098;-88
2022/07/07 10:24:38;;;;;;;4.07;1.45;;;20.00;99.90;;;;;;6253228;22;20050;-87
2022/07/07 10:27:05;;;;;;;5.50;1.27;;;20.10;99.90;;;;;;6253081;22;20018;-89
2022/07/07 10:30:03;;;;;;;4.60;1.23;;;19.80;99.90;;;;;;6252925;22;20097;-90
2022/07/07 10:32:53;;;;;;;5.20;1.40;;;19.40;99.90;;;;;;6253308;22;20538;-91
2022/07/07 10:35:19;;;;;;;4.18;1.27;;;18.90;99.90;;;;;;6234419;22;20094;-90
2022/07/07 10:37:47;;;;;;;5.63;1.23;;;18.60;99.90;;;;;;6252874;22;20379;-91
2022/07/07 10:40:17;;;;;;;6.38;1.55;;;18.50;99.90;;;;;;6253691;22;20059;-89
2022/07/07 10:43:17;;;;;;;5.30;1.30;;;18.60;99.90;;;;;;6253746;22;20046;-90
2022/07/07 10:45:48;;;;;;;3.63;1.30;;;18.60;99.90;;;;;;6253285;22;20022;-91
2022/07/07 10:48:39;;;;;;;5.55;1.20;;;18.70;99.90;;;;;;6253119;22;20016;-91
2022/07/07 10:51:22;;;;;;;6.55;0.98;;;18.80;99.90;;;;;;6253111;22;20022;-90
2022/07/07 10:54:06;;;;;;;3.95;1.13;;;18.70;99.90;;;;;;6253491;22;20007;-91
2022/07/07 10:56:51;;;;;;;2.85;1.20;;;18.60;99.90;;;;;;6253294;22;20355;-92
2022/07/07 10:59:18;;;;;;;4.85;1.25;;;18.50;99.90;;;;;;6252751;22;20022;-91
2022/07/07 11:02:02;;;;;;;3.08;1.17;;;18.50;99.90;;;;;;6253165;22;20007;-90
2022/07/07 11:04:43;;;;;;;3.63;1.13;;;18.50;99.90;;;;;;6278666;22;20485;-89
2022/07/07 11:07:16;;;;;;;4.75;1.40;;;18.40;99.90;;;;;;6253833;22;20069;-90
2022/07/07 11:09:54;;;;;;;;;;;18.20;99.90;;;;;;6253950;22;20109;-91
2022/07/07 11:12:39;;;;;;;6.55;1.50;;;18.00;99.90;;;;;;6278792;22;19911;-90
2022/07/07 11:15:22;;;;;;;10.13;1.85;;;17.80;99.90;;;;;;6278834;22;20022;-89
2022/07/07 11:18:09;;;;;;;8.40;1.70;;;17.70;99.90;;;;;;6252794;22;20022;-90
2022/07/07 11:20:36;;;;;;;11.60;1.77;;;17.60;99.90;;;;;;6251772;22;20012;-88
2022/07/07 11:23:21;;;;;;;7.05;2.20;;;17.60;99.90;;;;;;6253375;22;20546;-90
2022/07/07 11:25:47;;;;;;;7.95;2.10;;;17.50;99.90;;;;;;6255076;22;20010;-91
2022/07/07 11:28:13;;;;;;;9.50;2.20;;;17.50;99.90;;;;;;6254941;22;20011;-90
2022/07/07 11:30:40;;;;;;;10.60;1.90;;;17.40;99.90;;;;;;6280677;22;20030;-90
2022/07/07 11:33:06;;;;;;;7.45;2.20;;;17.60;99.90;;;;;;6254937;22;20011;-90
2022/07/07 11:35:40;;;;;;;7.93;2.00;;;17.70;99.90;;;;;;6255089;22;20072;-92
2022/07/07 11:38:08;;;;;;;9.68;2.40;;;17.90;99.90;;;;;;6255132;22;20011;-91
2022/07/07 11:40:37;;;;;;;10.68;2.63;;;18.10;99.90;;;;;;6255585;22;20148;-91
2022/07/07 11:43:03;;;;;;;13.15;3.25;;;18.30;99.90;;;;;;6255475;22;20007;-91
2022/07/07 11:45:30;;;;;;;10.45;2.25;;;18.40;99.90;;;;;;6254962;22;20007;-88
2022/07/07 11:47:59;;;;;;;11.55;2.53;;;18.20;99.90;;;;;;6254196;22;20008;-87
2022/07/07 11:50:25;;;;;;;15.40;2.75;;;18.00;99.90;;;;;;6280340;22;20007;-90
2022/07/07 11:52:55;;;;;;;16.25;3.50;;;17.80;99.90;;;;;;6254714;22;20011;-86
2022/07/07 11:55:21;;;;;;;10.07;2.10;;;17.60;99.90;;;;;;6254732;22;20403;-88
2022/07/07 11:57:55;;;;;;;11.15;2.40;;;17.50;99.90;;;;;;6254141;22;20344;-87
2022/07/07 12:00:25;;;;;;;8.63;2.00;;;17.50;99.90;;;;;;6254730;22;20008;-90
2022/07/07 12:02:52;;;;;;;10.18;2.40;;;17.60;99.90;;;;;;6254549;22;20458;-89
2022/07/07 12:05:20;;;;;;;10.57;2.08;;;17.70;99.90;;;;;;6254720;22;20007;-88
2022/07/07 12:07:55;;;;;;;9.70;1.88;;;18.00;99.90;;;;;;6254842;22;20041;-89
2022/07/07 12:10:22;;;;;;;8.73;2.00;;;18.10;99.90;;;;;;6254995;22;20451;-89
2022/07/07 12:13:00;;;;;;;10.90;2.30;;;18.30;99.90;;;;;;6254607;22;20010;-87
2022/07/07 12:15:35;;;;;;;12.35;2.00;;;18.40;99.90;;;;;;6254443;22;20011;-87
2022/07/07 12:18:05;;;;;;;8.63;1.70;;;18.40;99.90;;;;;;6254157;22;20011;-88
2022/07/07 12:20:31;;;;;;;9.35;1.80;;;18.40;99.90;;;;;;6254467;22;20007;-88
2022/07/07 12:22:59;;;;;;;13.65;1.80;;;18.40;99.90;;;;;;6280003;22;20003;-86
2022/07/07 12:25:27;;;;;;;9.82;1.90;;;18.30;99.90;;;;;;6279947;22;20030;-87
2022/07/07 12:28:04;;;;;;;7.63;1.95;;;18.20;99.90;;;;;;6279653;22;20011;-87
2022/07/07 12:30:35;;;;;;;6.50;2.30;;;18.20;99.90;;;;;;6279897;22;20053;-87
2022/07/07 12:33:01;;;;;;;8.75;1.80;;;18.30;99.90;;;;;;6254385;22;20008;-88
2022/07/07 12:35:30;;;;;;;9.90;2.50;;;18.40;99.90;;;;;;6253889;22;20003;-88
2022/07/07 12:37:58;;;;;;;8.57;1.95;;;18.50;99.90;;;;;;6253846;22;20008;-87
2022/07/07 12:40:25;;;;;;;6.90;1.70;;;18.60;99.90;;;;;;6254363;22;20007;-86
2022/07/07 12:42:50;;;;;;;11.80;1.85;;;18.80;99.90;;;;;;6254193;22;20011;-86
2022/07/07 12:45:18;;;;;;;9.40;1.80;;;18.70;99.90;;;;;;6254492;22;20466;-87
2022/07/07 12:47:45;;;;;;;8.05;1.90;;;18.80;99.90;;;;;;6253679;22;20037;-87
2022/07/07 12:50:10;;;;;;;8.32;1.63;;;18.70;99.90;;;;;;6254668;22;20008;-88
2022/07/07 12:52:36;;;;;;;7.97;1.50;;;18.70;99.90;;;;;;6254133;22;20379;-87
2022/07/07 12:55:11;;;;;;;8.60;1.80;;;18.60;99.90;;;;;;6254201;22;20015;-87
2022/07/07 12:57:37;;;;;;;7.70;1.63;;;18.60;99.90;;;;;;6254068;22;20504;-88
2022/07/07 13:00:05;;;;;;;8.10;1.80;;;18.60;99.90;;;;;;6254097;22;20091;-87
2022/07/07 13:02:31;;;;;;;8.50;1.42;;;18.70;99.90;;;;;;6254108;22;20030;-88